Eden Prairie, MN

9:19 AM CDT on May 23, 2015 (GMT -0500)
Glen Lake | | Change Station
CLOSE
Current Station
Personal Weather Station
Location: Minnetonka, MN
Elevation: 909 ft
Nearby Weather Stations

Elev 909 ft 44.90 °N, 93.45 °W | Updated 27 seconds ago

Mostly Cloudy
Mostly Cloudy
60.3 °F
Feels Like 60.3 °F
N
0.0
Wind Variable Wind from SE
Gusts 2.0 mph

Today
High -- | Low -- °F
--% Chance of Precip.
Yesterday
High -- | Low -- °F
Precip. -- in
5:37 AM 8:44 PM
Waxing Crescent, 30% visible
Pressure 30.26 in
Visibility 10.0 miles
Clouds Mostly Cloudy 10000 ft
Dew Point 48 °F
Humidity 63%
Rainfall 0.00 in
Snow Depth Not available.
UV 2 out of 12
Pollen 6.40 out of 12
Air Quality Not available.
Flu Activity Sporadic
METAR KFCM 231353Z 23003KT 10SM BKN100 14/09 A3026 RMK AO2 SLP246 T01440094

More Conditions Fewer Conditions

Pressure 30.26 in
Visibility 10.0 miles
Clouds Mostly Cloudy 10000 ft
Dew Point 48 °F
Humidity 63%
Rainfall 0.00 in
Snow Depth Not available.
UV 2 out of 12
Pollen 6.40 out of 12
Air Quality Not available.
Flu Activity Sporadic
METAR KFCM 231353Z 23003KT 10SM BKN100 14/09 A3026 RMK AO2 SLP246 T01440094

More Conditions Fewer Conditions

10-Day Weather Forecast

Almanac

Astronomy

May. 23, 2015 Rise Set
Actual Time
Civil Twilight
Nautical Twilight
Astronomical Twilight
Moon
Length of Visible Light
Length of Day
Tomorrow will be .
, % of the Moon is Illuminated

Today's Extremes

State Highs State Lows

Community

WunderPhotos

Upload Photos

1,823,474 photos uploaded!

WunderBlogs® & News

Nearby

Air Quality

  Air Quality AQ Index Pollutant
Not available.

Snow Depth

Station Depth Elevation

Earthquake Activity

City Distance Mag. Time & Date
Minimum magnitude displayed is 2.5.

Coastal Water Temperatures

Place Temperature

Stations

Nearby Weather Stations

Station Location Temp. Windchill Dew Point Humidity Wind Precip. Elev Updated Type